Lanty, Arkansas
Current Conditions -  °F | °C
As of 5:53 PM on Tuesday 25 Nov 2014 (Local Time) from KRUE Reporting Station
Clear Clear  
Wind Chill: 38°   Ceiling: Unl
Heat Index: 38°   Visibility: 10mi
Dew Point: 29°   Wind: 0mph
Humidity: 70%   Direction: NA
Pressure: 30.16"   Gusts: NA
Location:  35.227°N, 92.6879°W
Report Text: KRUE 252353Z AUTO 00000KT 10SM CLR 03/M02 A3016 RMK AO2 SLP214 T00331017 10117 20033 53002
Loading
Personal Weather Stations






























Interactive Weather Map New forecast layout! Learn more

10-Day Weather Forecast

Advertisements
Track Severe Weather on mobile